SLCO/CIJ METAR and TAF weather

Enter ICAO airport designator
Station Type Date Time Source
SLCO METAR 2020/05/29 16:00 UTC NOAA

SLCO 291600Z 00000KT 9999 FEW025 29/19 Q1015


Station Type Date Time Source
SLCO Decoded METAR 2020/05/29 16:00 UTC NOAA

Cobija, Bolivia (SLCO) 11-02S 068-47W 260M
May 29, 2020 - 12:00 PM EDT / 2020.05.29 1600 UTC
Wind: Calm:0
Visibility: greater than 7 mile(s):0
Sky conditions: mostly clear
Temperature: 84 F (29 C)
Dew Point: 66 F (19 C)
Relative Humidity: 54%
Pressure (altimeter): 29.97 in. Hg (1015 hPa)
ob: SLCO 291600Z 00000KT 9999 FEW025 29/19 Q1015
cycle: 16

Station Type Date Time Source
SLCO TAF 2020/05/29 18:09 UTC NOAA

TAF TAF SLCO 291700Z 2918/3018 30007KT 9999 FEW025 TX31/2920Z TN17/3010Z
BECMG 3002/3006 00000KT NSC

Example: see airport list